createdAt,value
2023-03-29T00:02:13.316Z,28.40
2023-03-29T00:07:23.875Z,30.70
2023-03-29T00:12:31.523Z,38.90
2023-03-29T00:17:38.750Z,25.60
2023-03-29T00:22:46.919Z,25.40
2023-03-29T00:27:54.001Z,41.30
2023-03-29T00:33:01.191Z,42.80
2023-03-29T00:38:08.388Z,41.80
2023-03-29T00:43:16.952Z,38.60
2023-03-29T00:48:29.112Z,31.20
2023-03-29T00:53:39.631Z,24.90
2023-03-29T00:58:55.086Z,28.20
2023-03-29T01:04:08.621Z,24.00
2023-03-29T01:09:17.500Z,30.00
2023-03-29T01:14:31.168Z,35.60
2023-03-29T01:19:46.584Z,25.40
2023-03-29T01:25:06.612Z,29.30
2023-03-29T01:30:17.519Z,23.20
2023-03-29T01:35:32.740Z,30.80
2023-03-29T01:40:40.300Z,34.30
2023-03-29T01:45:51.730Z,28.70
2023-03-29T01:51:06.369Z,30.30
2023-03-29T01:56:19.927Z,31.90
2023-03-29T02:01:33.190Z,31.00
2023-03-29T02:06:41.776Z,28.10
2023-03-29T02:11:49.995Z,29.00
2023-03-29T02:16:57.508Z,23.40
2023-03-29T02:27:14.067Z,31.20
2023-03-29T02:32:27.511Z,24.70
2023-03-29T02:37:41.111Z,26.80
2023-03-29T02:42:50.355Z,25.00
2023-03-29T02:48:01.465Z,19.80
2023-03-29T02:53:16.039Z,23.80
2023-03-29T02:58:26.808Z,25.40
2023-03-29T03:03:34.311Z,27.60
2023-03-29T03:08:42.598Z,39.00
2023-03-29T03:13:51.760Z,37.50
2023-03-29T03:18:59.153Z,24.80
2023-03-29T03:24:08.473Z,27.60
2023-03-29T03:29:16.432Z,29.30
2023-03-29T03:34:45.119Z,32.60
2023-03-29T03:39:52.460Z,31.70
2023-03-29T03:45:00.224Z,29.40
2023-03-29T03:50:33.642Z,23.30
2023-03-29T03:55:41.689Z,22.60
2023-03-29T04:00:53.441Z,32.50
2023-03-29T04:06:10.043Z,23.30
2023-03-29T04:11:37.404Z,30.40
2023-03-29T04:16:45.421Z,30.50
2023-03-29T04:22:18.199Z,24.00
2023-03-29T04:27:26.047Z,38.30
2023-03-29T04:32:34.221Z,43.80
2023-03-29T04:37:47.035Z,39.60
2023-03-29T04:42:56.457Z,34.30
2023-03-29T04:48:04.203Z,21.50
2023-03-29T04:58:18.983Z,19.60
2023-03-29T05:03:27.905Z,29.40
2023-03-29T05:08:41.239Z,40.70
2023-03-29T05:14:18.243Z,32.00
2023-03-29T05:19:26.000Z,31.70
2023-03-29T05:24:33.452Z,48.40
2023-03-29T05:29:52.490Z,42.80
2023-03-29T05:35:11.451Z,35.00
2023-03-29T05:40:20.029Z,36.00
2023-03-29T05:45:53.395Z,34.20
2023-03-29T05:51:03.702Z,52.50
2023-03-29T05:56:12.323Z,42.50
2023-03-29T06:01:20.618Z,30.90
2023-03-29T06:06:48.773Z,37.80
2023-03-29T06:11:57.716Z,39.00
2023-03-29T06:17:25.241Z,39.00
2023-03-29T06:22:33.389Z,33.10
2023-03-29T06:27:40.904Z,29.50
2023-03-29T06:32:50.656Z,35.00
2023-03-29T06:38:11.402Z,41.30
2023-03-29T06:43:47.983Z,41.90
2023-03-29T06:48:56.351Z,41.20
2023-03-29T06:54:06.243Z,47.60
2023-03-29T06:59:14.782Z,30.40
2023-03-29T07:04:46.292Z,42.90
2023-03-29T07:10:01.914Z,24.90
2023-03-29T07:15:33.308Z,32.10
2023-03-29T07:21:07.941Z,22.40
2023-03-29T07:26:28.541Z,24.20
2023-03-29T07:31:41.103Z,21.70
2023-03-29T07:37:11.211Z,14.60
2023-03-29T07:42:22.654Z,13.30
2023-03-29T07:47:31.826Z,12.70
2023-03-29T07:52:42.373Z,15.30
2023-03-29T07:57:51.529Z,14.10
2023-03-29T08:03:05.843Z,9.50
2023-03-29T08:08:14.406Z,10.70
2023-03-29T08:13:30.825Z,12.80
2023-03-29T08:19:01.226Z,12.70
2023-03-29T08:24:21.486Z,12.70
2023-03-29T08:29:33.431Z,24.70
2023-03-29T08:34:41.235Z,28.30
2023-03-29T08:40:09.183Z,17.10
2023-03-29T08:45:35.616Z,6.60
2023-03-29T08:50:50.157Z,10.50
2023-03-29T08:56:01.931Z,14.20
2023-03-29T09:01:35.182Z,7.40
2023-03-29T09:06:43.557Z,6.00
2023-03-29T09:12:12.079Z,9.00
2023-03-29T09:17:32.173Z,13.30
2023-03-29T09:22:49.932Z,6.20
2023-03-29T09:28:05.782Z,5.10
2023-03-29T09:33:27.273Z,6.70
2023-03-29T09:39:05.010Z,6.50
2023-03-29T09:44:30.234Z,6.40
2023-03-29T09:49:47.217Z,8.70
2023-03-29T09:54:56.099Z,12.30
2023-03-29T10:00:36.939Z,8.80
2023-03-29T10:05:47.322Z,7.10
2023-03-29T10:10:57.729Z,9.00
2023-03-29T10:16:08.326Z,10.30
2023-03-29T10:21:20.318Z,7.00
2023-03-29T10:26:32.952Z,15.20
2023-03-29T10:31:42.794Z,12.40
2023-03-29T10:36:57.684Z,6.00
2023-03-29T10:42:06.327Z,6.70
2023-03-29T10:47:19.762Z,8.90
2023-03-29T10:52:27.934Z,8.00
2023-03-29T10:57:46.280Z,10.00
2023-03-29T11:08:27.961Z,7.00
2023-03-29T11:13:44.393Z,7.40
2023-03-29T11:19:05.195Z,5.20
2023-03-29T11:24:48.904Z,7.80
2023-03-29T11:30:08.224Z,8.90
2023-03-29T11:35:31.475Z,8.80
2023-03-29T11:40:48.313Z,5.00
2023-03-29T11:46:02.712Z,6.70
2023-03-29T11:51:18.213Z,8.00
2023-03-29T11:56:32.480Z,5.00
2023-03-29T12:01:44.857Z,5.60
2023-03-29T12:07:03.051Z,5.60
2023-03-29T12:12:16.334Z,11.00
2023-03-29T12:17:29.796Z,6.40
2023-03-29T12:22:38.575Z,9.30
2023-03-29T12:27:55.033Z,13.00
2023-03-29T12:33:21.883Z,5.50
2023-03-29T12:38:35.858Z,6.90
2023-03-29T12:44:09.556Z,8.80
2023-03-29T12:49:48.517Z,10.70
2023-03-29T12:55:01.579Z,5.30
2023-03-29T13:00:28.204Z,8.90
2023-03-29T13:05:39.429Z,14.80
2023-03-29T13:10:55.894Z,9.60
2023-03-29T13:16:15.929Z,6.10
2023-03-29T13:21:32.328Z,9.10
2023-03-29T13:26:54.360Z,5.80
2023-03-29T13:32:18.139Z,6.40
2023-03-29T13:37:40.416Z,8.60
2023-03-29T13:43:06.240Z,8.60
2023-03-29T13:48:29.502Z,12.10
2023-03-29T13:53:46.340Z,7.50
2023-03-29T13:59:19.025Z,15.30
2023-03-29T14:04:30.724Z,11.20
2023-03-29T14:09:43.736Z,7.20
2023-03-29T14:14:59.198Z,8.80
2023-03-29T14:20:10.464Z,18.60
2023-03-29T14:25:21.391Z,17.50
2023-03-29T14:30:32.124Z,10.50
2023-03-29T14:35:40.565Z,23.50
2023-03-29T14:40:48.554Z,14.30
2023-03-29T14:51:02.773Z,12.20
2023-03-29T14:56:13.907Z,10.70
2023-03-29T15:01:25.346Z,15.80
2023-03-29T15:06:33.381Z,16.90
2023-03-29T15:16:49.476Z,21.50
2023-03-29T15:21:56.835Z,13.00
2023-03-29T15:27:12.436Z,16.80
2023-03-29T15:32:34.961Z,14.30
2023-03-29T15:37:44.587Z,8.80
2023-03-29T15:42:52.274Z,11.20
2023-03-29T15:48:02.075Z,7.70
2023-03-29T15:53:15.026Z,10.80
2023-03-29T15:58:25.953Z,17.00
2023-03-29T16:03:33.319Z,12.30
2023-03-29T16:08:42.072Z,16.10
2023-03-29T16:13:49.447Z,18.80
2023-03-29T16:18:56.926Z,10.40
2023-03-29T16:24:04.569Z,26.50
2023-03-29T16:29:12.513Z,19.90
2023-03-29T16:34:20.337Z,12.30
2023-03-29T16:39:27.828Z,15.10
2023-03-29T16:44:34.972Z,10.40
2023-03-29T16:49:44.341Z,10.60
2023-03-29T16:54:54.353Z,17.10
2023-03-29T17:00:01.516Z,19.90
2023-03-29T17:05:11.195Z,19.30
2023-03-29T17:10:19.040Z,20.00
2023-03-29T17:15:26.580Z,19.20
2023-03-29T17:20:33.770Z,21.80
2023-03-29T17:25:40.994Z,27.70
2023-03-29T17:30:49.058Z,21.90
2023-03-29T17:35:57.811Z,20.20
2023-03-29T17:41:08.069Z,22.20
2023-03-29T17:46:23.463Z,18.70
2023-03-29T17:51:31.144Z,18.50
2023-03-29T17:56:39.695Z,24.60
2023-03-29T18:01:46.971Z,17.70
2023-03-29T18:06:55.127Z,19.10
2023-03-29T18:12:02.344Z,35.10
2023-03-29T18:17:09.838Z,21.50
2023-03-29T18:22:17.974Z,23.10
2023-03-29T18:32:30.598Z,21.10
2023-03-29T18:37:38.025Z,27.00
2023-03-29T18:42:45.154Z,33.10
2023-03-29T18:47:52.511Z,25.10
2023-03-29T18:53:02.417Z,57.30
2023-03-29T18:58:09.676Z,31.00
2023-03-29T19:03:16.909Z,37.80
2023-03-29T19:08:25.845Z,42.70
2023-03-29T19:13:33.084Z,34.30
2023-03-29T19:18:40.270Z,49.90
2023-03-29T19:23:47.530Z,58.80
2023-03-29T19:28:54.635Z,35.20
2023-03-29T19:34:19.791Z,38.50
2023-03-29T19:39:29.570Z,61.90
2023-03-29T19:44:38.495Z,47.50
2023-03-29T19:49:47.095Z,33.10
2023-03-29T19:54:54.413Z,34.30
2023-03-29T20:00:02.214Z,33.00
2023-03-29T20:05:21.882Z,44.20
2023-03-29T20:10:29.339Z,52.90
2023-03-29T20:15:36.518Z,47.90
2023-03-29T20:20:44.758Z,58.20
2023-03-29T20:25:52.729Z,52.50
2023-03-29T20:36:06.819Z,39.10
2023-03-29T20:41:14.339Z,44.70
2023-03-29T20:46:24.089Z,51.20
2023-03-29T20:51:32.225Z,41.60
2023-03-29T20:56:42.635Z,34.00
2023-03-29T21:01:50.528Z,58.80
2023-03-29T21:07:00.972Z,40.50
2023-03-29T21:12:10.479Z,34.80
2023-03-29T21:17:17.600Z,38.40
2023-03-29T21:22:24.804Z,43.90
2023-03-29T21:27:31.915Z,31.30
2023-03-29T21:32:39.186Z,36.20
2023-03-29T21:37:46.485Z,31.00
2023-03-29T21:42:53.608Z,41.00
2023-03-29T21:48:01.013Z,28.80
2023-03-29T21:53:08.616Z,36.60
2023-03-29T21:58:16.190Z,24.20
2023-03-29T22:03:23.412Z,35.60
2023-03-29T22:08:30.909Z,32.20
2023-03-29T22:13:38.946Z,31.00
2023-03-29T22:23:57.071Z,30.50
2023-03-29T22:29:04.693Z,30.00
2023-03-29T22:34:13.036Z,27.30
2023-03-29T22:39:20.162Z,22.10
2023-03-29T22:44:27.293Z,23.30
2023-03-29T22:49:34.382Z,29.50
2023-03-29T22:54:41.439Z,28.10
2023-03-29T22:59:48.538Z,27.20
2023-03-29T23:04:56.948Z,24.00
2023-03-29T23:10:04.234Z,23.90
2023-03-29T23:15:13.876Z,30.00
2023-03-29T23:20:21.381Z,26.10
2023-03-29T23:25:30.190Z,32.00
2023-03-29T23:30:38.802Z,32.70
2023-03-29T23:35:46.828Z,33.80
2023-03-29T23:41:01.013Z,28.60
2023-03-29T23:46:10.813Z,33.40
2023-03-29T23:51:23.262Z,30.20
2023-03-29T23:56:32.646Z,25.80
